createdAt,value
2022-12-28T00:04:17.067Z,6.27
2022-12-28T00:09:21.319Z,6.29
2022-12-28T00:14:25.197Z,6.28
2022-12-28T00:19:28.223Z,6.35
2022-12-28T00:24:32.729Z,6.46
2022-12-28T00:29:35.690Z,6.51
2022-12-28T00:34:40.352Z,6.58
2022-12-28T00:39:45.484Z,6.60
2022-12-28T00:44:51.043Z,6.65
2022-12-28T00:49:53.995Z,6.69
2022-12-28T00:54:58.301Z,6.60
2022-12-28T01:00:01.220Z,6.62
2022-12-28T01:05:04.261Z,6.68
2022-12-28T01:10:09.641Z,6.63
2022-12-28T01:15:13.540Z,6.78
2022-12-28T01:20:17.295Z,6.88
2022-12-28T01:25:21.614Z,6.98
2022-12-28T01:30:24.545Z,7.07
2022-12-28T01:35:27.691Z,7.06
2022-12-28T01:40:32.541Z,7.15
2022-12-28T01:45:35.615Z,7.03
2022-12-28T01:50:38.633Z,7.27
2022-12-28T01:55:45.155Z,7.45
2022-12-28T02:00:51.233Z,7.55
2022-12-28T02:05:58.811Z,7.64
2022-12-28T02:11:05.912Z,7.70
2022-12-28T02:16:11.004Z,7.81
2022-12-28T02:21:25.359Z,7.77
2022-12-28T02:26:48.683Z,7.61
2022-12-28T02:31:59.721Z,7.66
2022-12-28T02:37:05.255Z,7.71
2022-12-28T02:42:10.837Z,7.76
2022-12-28T02:47:34.790Z,7.81
2022-12-28T02:52:52.513Z,7.82
2022-12-28T02:58:16.627Z,7.94
2022-12-28T03:03:24.917Z,7.98
2022-12-28T03:08:33.742Z,8.13
2022-12-28T03:13:45.884Z,8.15
2022-12-28T03:19:16.522Z,8.31
2022-12-28T03:24:38.261Z,8.43
2022-12-28T03:30:01.544Z,8.34
2022-12-28T03:35:07.501Z,8.27
2022-12-28T03:40:13.933Z,8.31
2022-12-28T03:45:46.288Z,8.31
2022-12-28T03:50:48.339Z,8.27
2022-12-28T03:55:52.385Z,8.25
2022-12-28T04:00:56.665Z,8.23
2022-12-28T04:06:01.382Z,8.24
2022-12-28T04:11:04.598Z,8.32
2022-12-28T04:16:11.027Z,8.36
2022-12-28T04:21:17.061Z,8.43
2022-12-28T04:26:21.352Z,8.47
2022-12-28T04:31:27.367Z,8.57
2022-12-28T04:36:37.274Z,8.67
2022-12-28T04:41:45.793Z,8.69
2022-12-28T04:46:48.781Z,8.76
2022-12-28T04:51:53.225Z,8.82
2022-12-28T04:56:56.129Z,8.90
2022-12-28T05:01:59.049Z,8.96
2022-12-28T05:07:03.529Z,8.96
2022-12-28T05:12:06.871Z,8.94
2022-12-28T05:17:09.801Z,8.89
2022-12-28T05:22:15.669Z,8.90
2022-12-28T05:27:18.704Z,8.85
2022-12-28T05:32:21.631Z,8.88
2022-12-28T05:37:25.962Z,8.90
2022-12-28T05:42:28.946Z,8.97
2022-12-28T05:47:31.868Z,9.03
2022-12-28T05:52:38.593Z,9.10
2022-12-28T05:57:41.874Z,9.08
2022-12-28T06:02:47.983Z,9.10
2022-12-28T06:07:54.346Z,9.12
2022-12-28T06:12:59.510Z,9.15
2022-12-28T06:18:02.436Z,9.18
2022-12-28T06:23:06.859Z,9.16
2022-12-28T06:28:10.013Z,9.19
2022-12-28T06:33:12.942Z,9.26
2022-12-28T06:38:17.308Z,9.27
2022-12-28T06:43:20.252Z,9.33
2022-12-28T06:48:23.140Z,9.15
2022-12-28T06:53:29.342Z,8.99
2022-12-28T06:58:33.023Z,8.96
2022-12-28T07:03:36.068Z,8.99
2022-12-28T07:08:40.499Z,9.08
2022-12-28T07:13:45.765Z,9.12
2022-12-28T07:18:49.231Z,9.19
2022-12-28T07:23:55.121Z,9.21
2022-12-28T07:29:01.354Z,9.22
2022-12-28T07:34:08.850Z,9.24
2022-12-28T07:39:40.431Z,9.21
2022-12-28T07:44:49.080Z,9.22
2022-12-28T07:49:53.772Z,9.17
2022-12-28T07:55:05.199Z,9.21
2022-12-28T08:00:09.696Z,9.24
2022-12-28T08:05:20.926Z,9.27
2022-12-28T08:10:29.103Z,9.29
2022-12-28T08:15:32.387Z,9.31
2022-12-28T08:20:37.447Z,9.37
2022-12-28T08:25:42.081Z,9.41
2022-12-28T08:30:47.779Z,9.43
2022-12-28T08:35:50.844Z,9.45
2022-12-28T08:40:59.706Z,9.44
2022-12-28T08:46:05.226Z,9.47
2022-12-28T08:51:09.893Z,9.52
2022-12-28T08:56:17.286Z,9.58
2022-12-28T09:01:22.575Z,9.65
2022-12-28T09:06:28.184Z,9.68
2022-12-28T09:11:35.889Z,9.75
2022-12-28T09:16:40.104Z,9.75
2022-12-28T09:21:44.943Z,9.83
2022-12-28T09:26:57.064Z,9.84
2022-12-28T09:32:01.575Z,9.82
2022-12-28T09:37:08.702Z,9.89
2022-12-28T09:42:16.751Z,9.93
2022-12-28T09:47:25.401Z,9.92
2022-12-28T09:52:30.790Z,10.05
2022-12-28T09:57:39.412Z,10.04
2022-12-28T10:03:11.988Z,10.09
2022-12-28T10:08:17.891Z,10.12
2022-12-28T10:19:18.459Z,10.16
2022-12-28T10:24:32.970Z,10.16
2022-12-28T10:29:37.719Z,10.17
2022-12-28T10:34:56.045Z,10.19
2022-12-28T10:40:00.744Z,10.09
2022-12-28T10:45:08.144Z,9.86
2022-12-28T10:50:43.325Z,9.76
2022-12-28T10:55:50.185Z,9.64
2022-12-28T11:00:59.189Z,9.60
2022-12-28T11:06:13.359Z,9.54
2022-12-28T11:11:21.799Z,9.48
2022-12-28T11:16:28.244Z,9.39
2022-12-28T11:21:32.466Z,9.36
2022-12-28T11:26:37.708Z,9.31
2022-12-28T11:31:46.484Z,9.37
2022-12-28T11:36:50.830Z,9.35
2022-12-28T11:42:19.446Z,9.33
2022-12-28T11:47:33.092Z,9.32
2022-12-28T11:52:46.865Z,9.28
2022-12-28T11:57:53.016Z,9.27
2022-12-28T12:08:44.694Z,9.23
2022-12-28T12:13:51.628Z,9.21
2022-12-28T12:18:59.991Z,9.19
2022-12-28T12:24:07.031Z,9.14
2022-12-28T12:29:17.657Z,9.05
2022-12-28T12:34:27.823Z,9.01
2022-12-28T12:39:45.210Z,9.02
2022-12-28T12:45:03.601Z,8.97
2022-12-28T12:50:24.278Z,9.00
2022-12-28T12:55:41.742Z,9.03
2022-12-28T13:00:55.355Z,9.07
2022-12-28T13:06:05.772Z,9.14
2022-12-28T13:11:12.534Z,9.23
2022-12-28T13:16:19.224Z,9.29
2022-12-28T13:26:51.881Z,9.43
2022-12-28T13:31:55.317Z,9.49
2022-12-28T13:37:01.812Z,9.52
2022-12-28T13:42:06.585Z,9.57
2022-12-28T13:47:15.181Z,9.62
2022-12-28T13:52:27.745Z,9.65
2022-12-28T13:57:47.110Z,9.61
2022-12-28T14:02:57.556Z,9.61
2022-12-28T14:08:02.633Z,9.63
2022-12-28T14:13:06.149Z,9.68
2022-12-28T14:18:09.426Z,9.68
2022-12-28T14:23:26.980Z,9.63
2022-12-28T14:28:37.078Z,9.53
2022-12-28T14:33:50.239Z,9.57
2022-12-28T14:39:01.129Z,9.46
2022-12-28T14:44:14.939Z,9.50
2022-12-28T14:49:34.527Z,9.41
2022-12-28T14:54:46.951Z,9.29
2022-12-28T14:59:55.593Z,9.27
2022-12-28T15:05:00.774Z,9.26
2022-12-28T15:10:06.442Z,9.23
2022-12-28T15:15:13.341Z,9.22
2022-12-28T15:20:17.681Z,9.18
2022-12-28T15:25:26.556Z,9.14
2022-12-28T15:30:29.954Z,9.12
2022-12-28T15:35:34.132Z,9.04
2022-12-28T15:40:42.463Z,9.03
2022-12-28T15:51:11.976Z,9.01
2022-12-28T15:56:22.929Z,8.97
2022-12-28T16:01:27.393Z,8.95
2022-12-28T16:06:31.857Z,8.91
2022-12-28T16:11:36.232Z,8.95
2022-12-28T16:16:43.420Z,8.90
2022-12-28T16:21:46.532Z,8.90
2022-12-28T16:26:54.181Z,8.88
2022-12-28T16:31:59.833Z,8.84
2022-12-28T16:37:03.057Z,8.84
2022-12-28T16:42:08.596Z,8.84
2022-12-28T16:47:11.776Z,8.80
2022-12-28T16:52:14.849Z,8.79
2022-12-28T16:57:19.250Z,8.77
2022-12-28T17:02:23.136Z,8.75
2022-12-28T17:07:26.279Z,8.70
2022-12-28T17:12:31.221Z,8.71
2022-12-28T17:17:34.308Z,8.73
2022-12-28T17:22:38.799Z,8.68
2022-12-28T17:27:43.193Z,8.69
2022-12-28T17:32:46.159Z,8.68
2022-12-28T17:37:49.225Z,8.72
2022-12-28T17:42:53.651Z,8.70
2022-12-28T17:47:56.766Z,8.70
2022-12-28T17:53:00.291Z,8.75
2022-12-28T17:58:04.870Z,8.79
2022-12-28T18:03:07.876Z,8.83
2022-12-28T18:08:10.957Z,8.81
2022-12-28T18:13:15.864Z,8.80
2022-12-28T18:18:19.219Z,8.88
2022-12-28T18:23:22.205Z,8.92
2022-12-28T18:28:26.515Z,9.03
2022-12-28T18:33:29.605Z,9.01
2022-12-28T18:38:33.916Z,9.13
2022-12-28T18:43:38.811Z,9.18
2022-12-28T18:48:42.427Z,9.19
2022-12-28T18:53:48.705Z,9.23
2022-12-28T18:58:54.487Z,9.25
2022-12-28T19:03:59.007Z,9.28
2022-12-28T19:09:02.520Z,9.28
2022-12-28T19:14:08.660Z,9.26
2022-12-28T19:19:13.675Z,9.32
2022-12-28T19:24:18.007Z,9.33
2022-12-28T19:29:22.373Z,9.32
2022-12-28T19:34:25.357Z,9.38
2022-12-28T19:39:31.181Z,9.42
2022-12-28T19:44:35.744Z,9.45
2022-12-28T19:49:38.751Z,9.47
2022-12-28T19:54:41.842Z,9.56
2022-12-28T19:59:46.233Z,9.64
2022-12-28T20:04:49.307Z,9.75
2022-12-28T20:09:52.323Z,9.84
2022-12-28T20:14:56.650Z,9.88
2022-12-28T20:19:59.623Z,10.00
2022-12-28T20:25:02.589Z,10.02
2022-12-28T20:30:08.132Z,10.02
2022-12-28T20:35:12.191Z,10.05
2022-12-28T20:40:15.364Z,10.08
2022-12-28T20:45:21.705Z,10.12
2022-12-28T20:50:24.741Z,9.89
2022-12-28T20:55:27.712Z,10.22
2022-12-28T21:00:32.318Z,10.27
2022-12-28T21:05:35.311Z,10.36
2022-12-28T21:10:40.908Z,10.40
2022-12-28T21:15:45.413Z,10.41
2022-12-28T21:20:48.847Z,10.52
2022-12-28T21:25:51.903Z,10.45
2022-12-28T21:30:56.750Z,10.49
2022-12-28T21:36:00.625Z,10.55
2022-12-28T21:41:05.444Z,10.53
2022-12-28T21:46:12.268Z,10.58
2022-12-28T21:51:30.567Z,10.61
2022-12-28T21:56:35.053Z,10.63
2022-12-28T22:01:58.108Z,10.63
2022-12-28T22:07:01.433Z,10.71
2022-12-28T22:12:21.972Z,10.75
2022-12-28T22:17:26.470Z,10.79
2022-12-28T22:22:29.451Z,10.77
2022-12-28T22:27:32.424Z,10.83
2022-12-28T22:32:36.747Z,10.85
2022-12-28T22:37:40.988Z,10.89
2022-12-28T22:42:44.654Z,10.76
2022-12-28T22:47:49.610Z,10.53
2022-12-28T22:52:53.610Z,10.37
2022-12-28T22:57:56.651Z,10.28
2022-12-28T23:03:01.069Z,10.33
2022-12-28T23:08:04.203Z,10.38
2022-12-28T23:13:07.135Z,10.42
2022-12-28T23:18:25.271Z,10.45
2022-12-28T23:23:46.202Z,10.48
2022-12-28T23:28:49.163Z,10.62
2022-12-28T23:33:53.553Z,10.60
2022-12-28T23:38:57.053Z,10.67
2022-12-28T23:43:59.973Z,10.58
2022-12-28T23:49:04.273Z,10.62
2022-12-28T23:54:07.335Z,10.61
2022-12-28T23:59:10.521Z,10.71
